Time;durP1;ratioP1;P1;durP2;ratioP2;P2;SDS_P1;SDS_P2;PMS_P1;PMS_P2;Temp;Humidity;BMP_temperature;BMP_pressure;BME280_temperature;BME280_humidity;BME280_pressure;Samples;Min_cycle;Max_cycle;Signal;HPM_P1;HPM_P2
2024/01/24 00:00:43;;;;;;;;;;;;;;;;;;53544;1253;1056706;-80
2024/01/24 00:03:29;;;;;;;;;;;;;;;;;;53016;1255;1057101;-80
2024/01/24 00:05:56;;;;;;;;;;;;;;;;;;52963;1253;1005226;-80
2024/01/24 00:08:23;;;;;;;;;;;;;;;;;;52949;1255;1058982;-80
2024/01/24 00:10:49;;;;;;;;;;;;;;;;;;53021;1253;1005576;-80
2024/01/24 00:13:16;;;;;;;;;;;;;;;;;;52956;1255;1038909;-80
2024/01/24 00:15:42;;;;;;;;;;;;;;;;;;52957;1254;1005397;-80
2024/01/24 00:18:09;;;;;;;;;;;;;;;;;;53006;1253;1046962;-80
2024/01/24 00:20:35;;;;;;;;;;;;;;;;;;53052;1251;1003812;-80
2024/01/24 00:23:02;;;;;;;;;;;;;;;;;;53018;1251;1061555;-80
2024/01/24 00:25:28;;;;;;;;;;;;;;;;;;52978;1252;1004974;-80
2024/01/24 00:27:55;;;;;;;;;;;;;;;;;;53035;1252;1058151;-80
2024/01/24 00:30:22;;;;;;;;;;;;;;;;;;53015;1253;1005212;-80
2024/01/24 00:32:48;;;;;;;;;;;;;;;;;;52919;1253;1058812;-80
2024/01/24 00:35:15;;;;;;;;;;;;;;;;;;52997;1253;1005149;-80
2024/01/24 00:37:41;;;;;;;;;;;;;;;;;;53057;1255;1038541;-80
2024/01/24 00:40:07;;;;;;;;;;;;;;;;;;52974;1253;1003708;-80
2024/01/24 00:42:34;;;;;;;;;;;;;;;;;;52926;1253;1045827;-79
2024/01/24 00:45:00;;;;;;;;;;;;;;;;;;53939;1252;1003650;-80
2024/01/24 00:47:27;;;;;;;;;;;;;;;;;;53756;1255;1060751;-80
2024/01/24 00:49:53;;;;;;;;;;;;;;;;;;52967;1251;1005429;-79
2024/01/24 00:52:20;;;;;;;;;;;;;;;;;;53844;1252;1057295;-80
2024/01/24 00:54:46;;;;;;;;;;;;;;;;;;54153;1253;1003588;-80
2024/01/24 00:57:13;;;;;;;;;;;;;;;;;;54136;1252;1057476;-82
2024/01/24 00:59:39;;;;;;;;;;;;;;;;;;54135;1252;1003421;-81
2024/01/24 01:02:06;;;;;;;;;;;;;;;;;;54122;1255;1038843;-82
2024/01/24 01:04:32;;;;;;;;;;;;;;;;;;54183;1252;1003339;-82
2024/01/24 01:06:59;;;;;;;;;;;;;;;;;;54040;1251;1046120;-82
2024/01/24 01:09:26;;;;;;;;;;;;;;;;;;53242;1253;1003771;-82
2024/01/24 01:11:52;;;;;;;;;;;;;;;;;;53160;1251;1061247;-79
2024/01/24 01:14:19;;;;;;;;;;;;;;;;;;52990;1256;1005517;-80
2024/01/24 01:16:45;;;;;;;;;;;;;;;;;;53092;1251;1057283;-79
2024/01/24 01:19:12;;;;;;;;;;;;;;;;;;53071;1251;1005392;-80
2024/01/24 01:21:40;;;;;;;;;;;;;;;;;;53052;1251;1057166;-79
2024/01/24 01:24:08;;;;;;;;;;;;;;;;;;53004;1251;1004980;-80
2024/01/24 01:26:34;;;;;;;;;;;;;;;;;;53039;1253;1038727;-79
2024/01/24 01:29:01;;;;;;;;;;;;;;;;;;52978;1253;1005018;-80
2024/01/24 01:31:27;;;;;;;;;;;;;;;;;;53025;1251;1045542;-79
2024/01/24 01:33:54;;;;;;;;;;;;;;;;;;52996;1253;1005493;-80
2024/01/24 01:36:21;;;;;;;;;;;;;;;;;;52975;1252;1060696;-80
2024/01/24 01:38:47;;;;;;;;;;;;;;;;;;52995;1251;1005142;-80
2024/01/24 01:41:13;;;;;;;;;;;;;;;;;;53002;1251;1056834;-79
2024/01/24 01:43:40;;;;;;;;;;;;;;;;;;53035;1253;1004799;-79
2024/01/24 01:46:06;;;;;;;;;;;;;;;;;;52975;1253;1057351;-81
2024/01/24 01:48:33;;;;;;;;;;;;;;;;;;52943;1255;1004943;-79
2024/01/24 01:50:59;;;;;;;;;;;;;;;;;;52997;1252;1038284;-80
2024/01/24 01:53:26;;;;;;;;;;;;;;;;;;53008;1253;1005141;-80
2024/01/24 01:55:53;;;;;;;;;;;;;;;;;;53003;1252;1045272;-79
2024/01/24 01:58:19;;;;;;;;;;;;;;;;;;53171;1252;1003804;-80
2024/01/24 02:00:45;;;;;;;;;;;;;;;;;;54188;1252;1061340;-80
2024/01/24 02:03:12;;;;;;;;;;;;;;;;;;53728;1252;1003621;-79
2024/01/24 02:05:39;;;;;;;;;;;;;;;;;;52983;1252;1057194;-80
2024/01/24 02:08:05;;;;;;;;;;;;;;;;;;52971;1251;1005397;-79
2024/01/24 02:10:32;;;;;;;;;;;;;;;;;;52999;1253;1058381;-79
2024/01/24 02:12:59;;;;;;;;;;;;;;;;;;52996;1253;1004923;-79
2024/01/24 02:15:26;;;;;;;;;;;;;;;;;;52961;1251;1038416;-80
2024/01/24 02:17:53;;;;;;;;;;;;;;;;;;52963;1252;1005428;-80
2024/01/24 02:20:19;;;;;;;;;;;;;;;;;;53075;1251;1045835;-78
2024/01/24 02:22:46;;;;;;;;;;;;;;;;;;53081;1251;1005110;-79
2024/01/24 02:25:13;;;;;;;;;;;;;;;;;;53007;1251;1060982;-79
2024/01/24 02:27:39;;;;;;;;;;;;;;;;;;52988;1251;1005441;-79
2024/01/24 02:30:06;;;;;;;;;;;;;;;;;;52988;1253;1057467;-80
2024/01/24 02:32:32;;;;;;;;;;;;;;;;;;53005;1253;1005059;-79
2024/01/24 02:34:58;;;;;;;;;;;;;;;;;;52979;1252;1058371;-80
2024/01/24 02:37:25;;;;;;;;;;;;;;;;;;52937;1252;1005438;-80
2024/01/24 02:39:51;;;;;;;;;;;;;;;;;;53004;1253;1038592;-80
2024/01/24 02:42:19;;;;;;;;;;;;;;;;;;53019;1253;1005534;-80
2024/01/24 02:44:45;;;;;;;;;;;;;;;;;;52973;1253;1045430;-80
2024/01/24 02:47:12;;;;;;;;;;;;;;;;;;53013;1251;1005430;-79
2024/01/24 02:49:38;;;;;;;;;;;;;;;;;;53046;1251;1061484;-80
2024/01/24 02:52:04;;;;;;;;;;;;;;;;;;52981;1253;1003447;-80
2024/01/24 02:54:31;;;;;;;;;;;;;;;;;;52942;1252;1057180;-80
2024/01/24 02:56:57;;;;;;;;;;;;;;;;;;52978;1251;1005479;-80
2024/01/24 02:59:24;;;;;;;;;;;;;;;;;;53006;1255;1058482;-80
2024/01/24 03:01:51;;;;;;;;;;;;;;;;;;53007;1252;1005368;-80
2024/01/24 03:04:17;;;;;;;;;;;;;;;;;;52950;1253;1038216;-80
2024/01/24 03:06:44;;;;;;;;;;;;;;;;;;52987;1251;1004678;-80
2024/01/24 03:09:11;;;;;;;;;;;;;;;;;;52977;1253;1045709;-80
2024/01/24 03:11:37;;;;;;;;;;;;;;;;;;52959;1252;1004723;-80
2024/01/24 03:14:04;;;;;;;;;;;;;;;;;;53029;1251;1060887;-80
2024/01/24 03:16:30;;;;;;;;;;;;;;;;;;53022;1251;1005423;-81
2024/01/24 03:18:57;;;;;;;;;;;;;;;;;;53016;1251;1056582;-81
2024/01/24 03:21:24;;;;;;;;;;;;;;;;;;53259;1251;1005126;-82
2024/01/24 03:23:50;;;;;;;;;;;;;;;;;;53292;1250;1058406;-82
2024/01/24 03:26:17;;;;;;;;;;;;;;;;;;53238;1254;1003808;-80
2024/01/24 03:28:43;;;;;;;;;;;;;;;;;;52951;1254;1038732;-80
2024/01/24 03:31:10;;;;;;;;;;;;;;;;;;53002;1251;1005396;-80
2024/01/24 03:33:36;;;;;;;;;;;;;;;;;;53027;1251;1046825;-80
2024/01/24 03:36:03;;;;;;;;;;;;;;;;;;53023;1255;1005174;-80
2024/01/24 03:38:29;;;;;;;;;;;;;;;;;;53027;1252;1062131;-80
2024/01/24 03:40:56;;;;;;;;;;;;;;;;;;53022;1253;1005364;-80
2024/01/24 03:43:22;;;;;;;;;;;;;;;;;;53007;1251;1057469;-80
2024/01/24 03:45:49;;;;;;;;;;;;;;;;;;52966;1252;1005247;-79
2024/01/24 03:48:15;;;;;;;;;;;;;;;;;;52945;1253;1058123;-80
2024/01/24 03:50:42;;;;;;;;;;;;;;;;;;52995;1253;1004869;-80
2024/01/24 03:53:08;;;;;;;;;;;;;;;;;;52940;1253;1038496;-80
2024/01/24 03:55:35;;;;;;;;;;;;;;;;;;52964;1255;1005437;-80
2024/01/24 03:58:01;;;;;;;;;;;;;;;;;;53010;1253;1046216;-79
2024/01/24 04:00:28;;;;;;;;;;;;;;;;;;52991;1253;1005021;-80
2024/01/24 04:02:54;;;;;;;;;;;;;;;;;;53024;1251;1061153;-80
2024/01/24 04:05:21;;;;;;;;;;;;;;;;;;52987;1251;1005435;-80
2024/01/24 04:07:47;;;;;;;;;;;;;;;;;;52961;1251;1056227;-80
2024/01/24 04:10:15;;;;;;;;;;;;;;;;;;53000;1251;1005425;-80
2024/01/24 04:12:42;;;;;;;;;;;;;;;;;;52984;1255;1057286;-80
2024/01/24 04:15:08;;;;;;;;;;;;;;;;;;52986;1251;1005184;-80
2024/01/24 04:17:35;;;;;;;;;;;;;;;;;;52988;1251;1041194;-80
2024/01/24 04:20:01;;;;;;;;;;;;;;;;;;53029;1254;1005305;-80
2024/01/24 04:22:28;;;;;;;;;;;;;;;;;;53008;1251;1046163;-80
2024/01/24 04:24:55;;;;;;;;;;;;;;;;;;52990;1254;1005168;-80
2024/01/24 04:27:21;;;;;;;;;;;;;;;;;;53037;1251;1061329;-80
2024/01/24 04:29:48;;;;;;;;;;;;;;;;;;53053;1253;1005590;-80
2024/01/24 04:32:14;;;;;;;;;;;;;;;;;;53035;1253;1057256;-79
2024/01/24 04:34:41;;;;;;;;;;;;;;;;;;53012;1253;1004860;-80
2024/01/24 04:37:08;;;;;;;;;;;;;;;;;;52967;1253;1058020;-80
2024/01/24 04:39:34;;;;;;;;;;;;;;;;;;52986;1253;1005225;-80
2024/01/24 04:42:01;;;;;;;;;;;;;;;;;;52976;1255;1038545;-80
2024/01/24 04:44:27;;;;;;;;;;;;;;;;;;52996;1253;1004611;-80
2024/01/24 04:46:54;;;;;;;;;;;;;;;;;;53042;1255;1045718;-80
2024/01/24 04:49:20;;;;;;;;;;;;;;;;;;53008;1252;1004748;-79
2024/01/24 04:51:48;;;;;;;;;;;;;;;;;;52950;1251;1061029;-79
2024/01/24 04:54:15;;;;;;;;;;;;;;;;;;52958;1253;1005242;-80
2024/01/24 04:56:41;;;;;;;;;;;;;;;;;;53007;1253;1056668;-80
2024/01/24 04:59:08;;;;;;;;;;;;;;;;;;52967;1252;1005468;-80
2024/01/24 05:01:34;;;;;;;;;;;;;;;;;;52993;1253;1058002;-80
2024/01/24 05:04:01;;;;;;;;;;;;;;;;;;52994;1252;1005323;-80
2024/01/24 05:06:27;;;;;;;;;;;;;;;;;;52946;1251;1039973;-80
2024/01/24 05:08:53;;;;;;;;;;;;;;;;;;52991;1253;1005399;-79
2024/01/24 05:11:20;;;;;;;;;;;;;;;;;;52976;1255;1045749;-80
2024/01/24 05:13:46;;;;;;;;;;;;;;;;;;52983;1253;1005414;-80
2024/01/24 05:16:13;;;;;;;;;;;;;;;;;;52997;1251;1061952;-80
2024/01/24 05:18:40;;;;;;;;;;;;;;;;;;53008;1252;1005342;-80
2024/01/24 05:21:06;;;;;;;;;;;;;;;;;;52999;1254;1058215;-80
2024/01/24 05:23:33;;;;;;;;;;;;;;;;;;52962;1255;1005457;-80
2024/01/24 05:25:59;;;;;;;;;;;;;;;;;;53017;1251;1058035;-80
2024/01/24 05:28:26;;;;;;;;;;;;;;;;;;53215;1251;1005508;-80
2024/01/24 05:30:52;;;;;;;;;;;;;;;;;;54172;1251;1038429;-80
2024/01/24 05:33:19;;;;;;;;;;;;;;;;;;54187;1250;1003346;-80
2024/01/24 05:35:48;;;;;;;;;;;;;;;;;;53104;1253;1045908;-80
2024/01/24 05:38:14;;;;;;;;;;;;;;;;;;53178;1253;1005361;-80
2024/01/24 05:40:41;;;;;;;;;;;;;;;;;;54219;1251;1003145;-80
2024/01/24 05:43:07;;;;;;;;;;;;;;;;;;53035;1253;1061406;-81
2024/01/24 05:45:34;;;;;;;;;;;;;;;;;;52987;1253;1005126;-79
2024/01/24 05:48:00;;;;;;;;;;;;;;;;;;53113;1253;1057441;-80
2024/01/24 05:50:27;;;;;;;;;;;;;;;;;;53046;1251;1005216;-79
2024/01/24 05:52:53;;;;;;;;;;;;;;;;;;52973;1252;1058486;-79
2024/01/24 05:55:20;;;;;;;;;;;;;;;;;;53042;1255;1005454;-80
2024/01/24 05:57:46;;;;;;;;;;;;;;;;;;53019;1253;1038250;-79
2024/01/24 06:00:16;;;;;;;;;;;;;;;;;;52998;1255;1005264;-80
2024/01/24 06:02:47;;;;;;;;;;;;;;;;;;53205;1252;1046533;-80
2024/01/24 06:05:15;;;;;;;;;;;;;;;;;;53002;1253;1045895;-80
2024/01/24 06:07:42;;;;;;;;;;;;;;;;;;52988;1251;1004856;-80
2024/01/24 06:10:08;;;;;;;;;;;;;;;;;;53049;1253;1061220;-80
2024/01/24 06:12:35;;;;;;;;;;;;;;;;;;53089;1253;1005033;-81
2024/01/24 06:15:01;;;;;;;;;;;;;;;;;;53047;1253;1056242;-79
2024/01/24 06:17:28;;;;;;;;;;;;;;;;;;53097;1251;1005120;-80
2024/01/24 06:19:54;;;;;;;;;;;;;;;;;;53032;1255;1058263;-80
2024/01/24 06:22:21;;;;;;;;;;;;;;;;;;53133;1253;1003878;-80
2024/01/24 06:24:48;;;;;;;;;;;;;;;;;;53044;1253;1038159;-81
2024/01/24 06:27:14;;;;;;;;;;;;;;;;;;53259;1253;1005204;-80
2024/01/24 06:29:41;;;;;;;;;;;;;;;;;;54160;1252;1045817;-80
2024/01/24 06:32:07;;;;;;;;;;;;;;;;;;54196;1251;1003314;-80
2024/01/24 06:34:34;;;;;;;;;;;;;;;;;;54065;1255;1061498;-80
2024/01/24 06:37:00;;;;;;;;;;;;;;;;;;54181;1251;1003162;-80
2024/01/24 06:39:27;;;;;;;;;;;;;;;;;;54190;1251;1057527;-80
2024/01/24 06:41:53;;;;;;;;;;;;;;;;;;54203;1254;1003333;-80
2024/01/24 06:44:19;;;;;;;;;;;;;;;;;;54013;1253;1058091;-80
2024/01/24 06:46:46;;;;;;;;;;;;;;;;;;53022;1253;1004998;-80
2024/01/24 06:49:13;;;;;;;;;;;;;;;;;;53006;1251;1038204;-80
2024/01/24 06:51:39;;;;;;;;;;;;;;;;;;53052;1251;1004757;-80
2024/01/24 06:54:06;;;;;;;;;;;;;;;;;;53063;1251;1046567;-79
2024/01/24 06:56:32;;;;;;;;;;;;;;;;;;53078;1251;1005535;-80
2024/01/24 06:58:59;;;;;;;;;;;;;;;;;;53082;1251;1061207;-79
2024/01/24 07:01:26;;;;;;;;;;;;;;;;;;53100;1251;1004716;-80
2024/01/24 07:03:53;;;;;;;;;;;;;;;;;;53072;1252;1056741;-80
2024/01/24 07:06:19;;;;;;;;;;;;;;;;;;53066;1250;1004958;-80
2024/01/24 07:08:46;;;;;;;;;;;;;;;;;;53039;1255;1059111;-80
2024/01/24 07:11:12;;;;;;;;;;;;;;;;;;53090;1250;1005504;-79
2024/01/24 07:13:39;;;;;;;;;;;;;;;;;;53100;1253;1038218;-81
2024/01/24 07:16:07;;;;;;;;;;;;;;;;;;53017;1253;1004763;-80
2024/01/24 07:18:33;;;;;;;;;;;;;;;;;;52949;1253;1045735;-80
2024/01/24 07:21:00;;;;;;;;;;;;;;;;;;53055;1253;1005484;-80
2024/01/24 07:23:27;;;;;;;;;;;;;;;;;;53124;1255;1061040;-80
2024/01/24 07:25:53;;;;;;;;;;;;;;;;;;53174;1253;1003817;-79
2024/01/24 07:28:19;;;;;;;;;;;;;;;;;;53055;1253;1057803;-79
2024/01/24 07:30:46;;;;;;;;;;;;;;;;;;53039;1251;1005733;-80
2024/01/24 07:33:13;;;;;;;;;;;;;;;;;;53118;1254;1058457;-80
2024/01/24 07:35:40;;;;;;;;;;;;;;;;;;53049;1253;1005281;-80
2024/01/24 07:38:06;;;;;;;;;;;;;;;;;;53103;1252;1039401;-79
2024/01/24 07:40:33;;;;;;;;;;;;;;;;;;53111;1253;1005183;-79
2024/01/24 07:42:59;;;;;;;;;;;;;;;;;;53437;1252;1046740;-80
2024/01/24 07:45:26;;;;;;;;;;;;;;;;;;53547;1251;1005577;-80
2024/01/24 07:47:52;;;;;;;;;;;;;;;;;;53388;1251;1060626;-80
2024/01/24 07:50:19;;;;;;;;;;;;;;;;;;53265;1251;1004649;-80
2024/01/24 07:52:46;;;;;;;;;;;;;;;;;;53206;1252;1056852;-80
2024/01/24 07:55:12;;;;;;;;;;;;;;;;;;53117;1251;1004649;-80
2024/01/24 07:57:39;;;;;;;;;;;;;;;;;;53201;1251;1058915;-80
2024/01/24 08:00:06;;;;;;;;;;;;;;;;;;53084;1253;1005514;-80
2024/01/24 08:02:32;;;;;;;;;;;;;;;;;;53182;1251;1038586;-80
2024/01/24 08:04:59;;;;;;;;;;;;;;;;;;53136;1253;1004716;-80
2024/01/24 08:07:26;;;;;;;;;;;;;;;;;;53170;1255;1045002;-80
2024/01/24 08:09:52;;;;;;;;;;;;;;;;;;53215;1253;1004209;-80
2024/01/24 08:12:19;;;;;;;;;;;;;;;;;;54177;1253;1061141;-80
2024/01/24 08:14:45;;;;;;;;;;;;;;;;;;54155;1249;1003171;-80
2024/01/24 08:17:13;;;;;;;;;;;;;;;;;;54106;1251;1057303;-80
2024/01/24 08:19:40;;;;;;;;;;;;;;;;;;54132;1251;1003490;-80
2024/01/24 08:22:06;;;;;;;;;;;;;;;;;;54219;1251;1003579;-80
2024/01/24 08:24:33;;;;;;;;;;;;;;;;;;54207;1251;1058057;-80
2024/01/24 08:26:59;;;;;;;;;;;;;;;;;;54160;1250;1003556;-80
2024/01/24 08:29:26;;;;;;;;;;;;;;;;;;54204;1250;1038164;-80
2024/01/24 08:31:52;;;;;;;;;;;;;;;;;;54163;1251;1003408;-80
2024/01/24 08:34:19;;;;;;;;;;;;;;;;;;54200;1250;1046189;-80
2024/01/24 08:36:45;;;;;;;;;;;;;;;;;;54214;1251;1003235;-80
2024/01/24 08:39:12;;;;;;;;;;;;;;;;;;54213;1251;1060942;-80
2024/01/24 08:41:39;;;;;;;;;;;;;;;;;;54216;1250;1003438;-80
2024/01/24 08:44:05;;;;;;;;;;;;;;;;;;54221;1251;1057264;-80
2024/01/24 08:46:32;;;;;;;;;;;;;;;;;;54237;1251;1003288;-80
2024/01/24 08:48:58;;;;;;;;;;;;;;;;;;54194;1251;1058010;-80
2024/01/24 08:51:31;;;;;;;;;;;;;;;;;;54148;1251;1003905;-80
2024/01/24 08:53:57;;;;;;;;;;;;;;;;;;53143;1256;1040696;-80
2024/01/24 08:56:24;;;;;;;;;;;;;;;;;;53121;1257;1005319;-80
2024/01/24 08:58:50;;;;;;;;;;;;;;;;;;53105;1251;1045522;-80
2024/01/24 09:01:17;;;;;;;;;;;;;;;;;;53224;1256;1005441;-80
2024/01/24 09:03:46;;;;;;;;;;;;;;;;;;53067;1257;1061748;-80
2024/01/24 09:06:12;;;;;;;;;;;;;;;;;;53161;1256;1005419;-80
2024/01/24 09:08:38;;;;;;;;;;;;;;;;;;53201;1256;1005588;-80
2024/01/24 09:11:05;;;;;;;;;;;;;;;;;;53282;1251;1056834;-80
2024/01/24 09:13:31;;;;;;;;;;;;;;;;;;53199;1253;1004673;-80
2024/01/24 09:15:58;;;;;;;;;;;;;;;;;;53213;1251;1057988;-80
2024/01/24 09:18:24;;;;;;;;;;;;;;;;;;53155;1251;1005165;-80
2024/01/24 09:20:51;;;;;;;;;;;;;;;;;;53214;1255;1039458;-82
2024/01/24 09:23:18;;;;;;;;;;;;;;;;;;53118;1255;1005208;-80
2024/01/24 09:25:44;;;;;;;;;;;;;;;;;;53180;1252;1045488;-80
2024/01/24 09:28:11;;;;;;;;;;;;;;;;;;53250;1253;1005430;-80
2024/01/24 09:30:39;;;;;;;;;;;;;;;;;;53161;1255;1062136;-80
2024/01/24 09:33:06;;;;;;;;;;;;;;;;;;53158;1251;1005376;-81
2024/01/24 09:35:32;;;;;;;;;;;;;;;;;;53142;1251;1057275;-80
2024/01/24 09:37:59;;;;;;;;;;;;;;;;;;53223;1253;1005420;-80
2024/01/24 09:40:25;;;;;;;;;;;;;;;;;;53071;1251;1058494;-81
2024/01/24 09:42:52;;;;;;;;;;;;;;;;;;53132;1255;1005197;-80
2024/01/24 09:45:19;;;;;;;;;;;;;;;;;;53301;1251;1038383;-80
2024/01/24 09:47:45;;;;;;;;;;;;;;;;;;53407;1255;1005148;-80
2024/01/24 09:50:11;;;;;;;;;;;;;;;;;;53278;1251;1045754;-81
2024/01/24 09:52:38;;;;;;;;;;;;;;;;;;53125;1251;1004875;-82
2024/01/24 09:55:04;;;;;;;;;;;;;;;;;;53173;1251;1062378;-80
2024/01/24 09:57:31;;;;;;;;;;;;;;;;;;53426;1251;1004960;-82
2024/01/24 09:59:57;;;;;;;;;;;;;;;;;;53317;1256;1057847;-82
2024/01/24 10:02:25;;;;;;;;;;;;;;;;;;53165;1253;1004615;-82
2024/01/24 10:04:52;;;;;;;;;;;;;;;;;;53185;1256;1057961;-79
2024/01/24 10:07:18;;;;;;;;;;;;;;;;;;53318;1255;1005452;-78
2024/01/24 10:09:45;;;;;;;;;;;;;;;;;;53317;1256;1038481;-78
2024/01/24 10:12:11;;;;;;;;;;;;;;;;;;53308;1254;1005377;-82
2024/01/24 10:14:40;;;;;;;;;;;;;;;;;;53302;1250;1045522;-79
2024/01/24 10:17:07;;;;;;;;;;;;;;;;;;53396;1251;1004626;-83
2024/01/24 10:19:33;;;;;;;;;;;;;;;;;;53114;1256;1005250;-78
2024/01/24 10:22:00;;;;;;;;;;;;;;;;;;53033;1255;1060270;-85
2024/01/24 10:24:31;;;;;;;;;;;;;;;;;;52947;1256;1004750;-79
2024/01/24 10:26:57;;;;;;;;;;;;;;;;;;53453;1251;1057709;-79
2024/01/24 10:29:24;;;;;;;;;;;;;;;;;;53252;1254;1005023;-84
2024/01/24 10:31:50;;;;;;;;;;;;;;;;;;53224;1257;1057559;-84
2024/01/24 10:34:17;;;;;;;;;;;;;;;;;;53134;1251;1005276;-84
2024/01/24 10:36:44;;;;;;;;;;;;;;;;;;53331;1251;1038509;-80
2024/01/24 10:39:10;;;;;;;;;;;;;;;;;;53207;1256;1004746;-80
2024/01/24 10:41:40;;;;;;;;;;;;;;;;;;53255;1252;1045621;-84
2024/01/24 10:44:09;;;;;;;;;;;;;;;;;;53203;1263;1004822;-84
2024/01/24 10:46:36;;;;;;;;;;;;;;;;;;53260;1251;1004968;-84
2024/01/24 10:49:02;;;;;;;;;;;;;;;;;;53186;1253;1003675;-80
2024/01/24 10:51:29;;;;;;;;;;;;;;;;;;53204;1256;1062173;-79
2024/01/24 10:53:55;;;;;;;;;;;;;;;;;;53178;1255;1004673;-84
2024/01/24 10:56:22;;;;;;;;;;;;;;;;;;53244;1251;1057036;-85
2024/01/24 10:58:48;;;;;;;;;;;;;;;;;;53383;1257;1005372;-79
2024/01/24 11:01:15;;;;;;;;;;;;;;;;;;53586;1254;1058486;-79
2024/01/24 11:03:41;;;;;;;;;;;;;;;;;;53602;1254;1003663;-79
2024/01/24 11:06:08;;;;;;;;;;;;;;;;;;53617;1251;1038232;-80
2024/01/24 11:08:35;;;;;;;;;;;;;;;;;;53492;1251;1005478;-79
2024/01/24 11:11:01;;;;;;;;;;;;;;;;;;53557;1260;1046390;-79
2024/01/24 11:13:28;;;;;;;;;;;;;;;;;;53494;1251;1003873;-84
2024/01/24 11:15:54;;;;;;;;;;;;;;;;;;53397;1257;1060643;-84
2024/01/24 11:18:21;;;;;;;;;;;;;;;;;;53497;1251;1003965;-84
2024/01/24 11:20:48;;;;;;;;;;;;;;;;;;53513;1251;1057479;-84
2024/01/24 11:23:14;;;;;;;;;;;;;;;;;;53456;1253;1005205;-79
2024/01/24 11:25:41;;;;;;;;;;;;;;;;;;53428;1251;1058054;-78
2024/01/24 11:28:08;;;;;;;;;;;;;;;;;;53438;1251;1004601;-79
2024/01/24 11:30:34;;;;;;;;;;;;;;;;;;53529;1254;1038632;-79
2024/01/24 11:33:01;;;;;;;;;;;;;;;;;;53395;1254;1003630;-79
2024/01/24 11:35:27;;;;;;;;;;;;;;;;;;53471;1251;1045857;-78
2024/01/24 11:37:54;;;;;;;;;;;;;;;;;;53422;1251;1004623;-83
2024/01/24 11:40:21;;;;;;;;;;;;;;;;;;53515;1254;1061229;-83
2024/01/24 11:42:47;;;;;;;;;;;;;;;;;;53375;1251;1005531;-83
2024/01/24 11:45:15;;;;;;;;;;;;;;;;;;53331;1255;1056547;-83
2024/01/24 11:47:42;;;;;;;;;;;;;;;;;;53469;1254;1005420;-82
2024/01/24 11:50:08;;;;;;;;;;;;;;;;;;53389;1251;1058459;-83
2024/01/24 11:52:35;;;;;;;;;;;;;;;;;;53337;1254;1004701;-82
2024/01/24 11:55:01;;;;;;;;;;;;;;;;;;53330;1252;1039204;-83
2024/01/24 11:57:29;;;;;;;;;;;;;;;;;;53404;1251;1003715;-82
2024/01/24 11:59:55;;;;;;;;;;;;;;;;;;53506;1251;1045460;-84
2024/01/24 12:02:23;;;;;;;;;;;;;;;;;;53391;1251;1004904;-82
2024/01/24 12:04:50;;;;;;;;;;;;;;;;;;53336;1251;1061657;-82
2024/01/24 12:07:16;;;;;;;;;;;;;;;;;;53508;1251;1003781;-82
2024/01/24 12:09:42;;;;;;;;;;;;;;;;;;53425;1252;1057064;-82
2024/01/24 12:12:09;;;;;;;;;;;;;;;;;;53419;1251;1003517;-79
2024/01/24 12:14:35;;;;;;;;;;;;;;;;;;53360;1255;1058307;-82
2024/01/24 12:17:02;;;;;;;;;;;;;;;;;;53394;1254;1004664;-82
2024/01/24 12:19:30;;;;;;;;;;;;;;;;;;53435;1255;1038752;-79
2024/01/24 12:21:58;;;;;;;;;;;;;;;;;;53344;1251;1003661;-79
2024/01/24 12:24:24;;;;;;;;;;;;;;;;;;53354;1253;1045874;-81
2024/01/24 12:26:51;;;;;;;;;;;;;;;;;;53206;1253;1003574;-81
2024/01/24 12:29:19;;;;;;;;;;;;;;;;;;53192;1251;1064381;-80
2024/01/24 12:31:46;;;;;;;;;;;;;;;;;;53155;1251;1005577;-80
2024/01/24 12:34:13;;;;;;;;;;;;;;;;;;53103;1251;1057610;-80
2024/01/24 12:36:39;;;;;;;;;;;;;;;;;;53179;1251;1004621;-81
2024/01/24 12:39:05;;;;;;;;;;;;;;;;;;53153;1251;1058303;-80
2024/01/24 12:41:32;;;;;;;;;;;;;;;;;;53112;1251;1003631;-81
2024/01/24 12:43:58;;;;;;;;;;;;;;;;;;53149;1254;1039045;-81
2024/01/24 12:46:25;;;;;;;;;;;;;;;;;;53180;1251;1005258;-81
2024/01/24 12:48:51;;;;;;;;;;;;;;;;;;53222;1251;1045069;-81
2024/01/24 12:51:18;;;;;;;;;;;;;;;;;;53113;1251;1005311;-80
2024/01/24 12:53:44;;;;;;;;;;;;;;;;;;53166;1254;1061594;-81
2024/01/24 12:56:11;;;;;;;;;;;;;;;;;;53189;1251;1005423;-81
2024/01/24 12:58:37;;;;;;;;;;;;;;;;;;53444;1251;1056823;-81
2024/01/24 13:01:04;;;;;;;;;;;;;;;;;;54166;1254;1003200;-82
2024/01/24 13:03:30;;;;;;;;;;;;;;;;;;54138;1251;1058128;-81
2024/01/24 13:05:57;;;;;;;;;;;;;;;;;;54085;1251;1003311;-80
2024/01/24 13:08:24;;;;;;;;;;;;;;;;;;54146;1254;1038628;-81
2024/01/24 13:10:54;;;;;;;;;;;;;;;;;;54139;1252;1003127;-80
2024/01/24 13:13:24;;;;;;;;;;;;;;;;;;54009;1260;1045558;-81
2024/01/24 13:15:53;;;;;;;;;;;;;;;;;;53745;1251;1004789;-81
2024/01/24 13:18:19;;;;;;;;;;;;;;;;;;53515;1251;1061082;-80
2024/01/24 13:20:46;;;;;;;;;;;;;;;;;;53488;1251;1005112;-80
2024/01/24 13:23:12;;;;;;;;;;;;;;;;;;53349;1251;1056173;-80
2024/01/24 13:25:39;;;;;;;;;;;;;;;;;;53400;1254;1005311;-80
2024/01/24 13:28:05;;;;;;;;;;;;;;;;;;53948;1254;1058750;-80
2024/01/24 13:30:33;;;;;;;;;;;;;;;;;;54112;1254;1003484;-80
2024/01/24 13:32:59;;;;;;;;;;;;;;;;;;54133;1250;1038021;-80
2024/01/24 13:35:26;;;;;;;;;;;;;;;;;;54118;1251;1003541;-80
2024/01/24 13:37:53;;;;;;;;;;;;;;;;;;54144;1251;1045463;-80
2024/01/24 13:40:19;;;;;;;;;;;;;;;;;;54118;1251;1003447;-80
2024/01/24 13:42:46;;;;;;;;;;;;;;;;;;54155;1251;1061008;-80
2024/01/24 13:45:14;;;;;;;;;;;;;;;;;;54160;1250;1003433;-81
2024/01/24 13:47:40;;;;;;;;;;;;;;;;;;54132;1254;1057367;-80
2024/01/24 13:50:07;;;;;;;;;;;;;;;;;;54127;1254;1003548;-80
2024/01/24 13:52:33;;;;;;;;;;;;;;;;;;54090;1254;1057979;-81
2024/01/24 13:55:00;;;;;;;;;;;;;;;;;;54141;1252;1003144;-80
2024/01/24 13:57:26;;;;;;;;;;;;;;;;;;54098;1251;1038243;-80
2024/01/24 13:59:53;;;;;;;;;;;;;;;;;;54172;1251;1003336;-80
2024/01/24 14:02:19;;;;;;;;;;;;;;;;;;54150;1251;1045718;-80
2024/01/24 14:04:46;;;;;;;;;;;;;;;;;;54107;1251;1003467;-80
2024/01/24 14:07:12;;;;;;;;;;;;;;;;;;54148;1254;1060741;-81
2024/01/24 14:09:39;;;;;;;;;;;;;;;;;;54176;1250;1003429;-80
2024/01/24 14:12:06;;;;;;;;;;;;;;;;;;54129;1253;1055948;-80
2024/01/24 14:14:32;;;;;;;;;;;;;;;;;;54117;1251;1003388;-80
2024/01/24 14:16:58;;;;;;;;;;;;;;;;;;54153;1251;1059595;-80
2024/01/24 14:19:25;;;;;;;;;;;;;;;;;;54084;1251;1003252;-80
2024/01/24 14:21:52;;;;;;;;;;;;;;;;;;54169;1250;1039131;-80
2024/01/24 14:24:19;;;;;;;;;;;;;;;;;;54138;1251;1003435;-80
2024/01/24 14:26:47;;;;;;;;;;;;;;;;;;54104;1251;1045688;-80
2024/01/24 14:29:14;;;;;;;;;;;;;;;;;;54161;1250;1003545;-80
2024/01/24 14:31:40;;;;;;;;;;;;;;;;;;54180;1251;1003451;-80
2024/01/24 14:34:08;;;;;;;;;;;;;;;;;;54218;1251;1061726;-80
2024/01/24 14:36:35;;;;;;;;;;;;;;;;;;54149;1251;1003624;-80
2024/01/24 14:39:03;;;;;;;;;;;;;;;;;;54141;1251;1056611;-80
2024/01/24 14:41:30;;;;;;;;;;;;;;;;;;54160;1251;1003581;-80
2024/01/24 14:43:57;;;;;;;;;;;;;;;;;;54165;1251;1003429;-81
2024/01/24 14:46:24;;;;;;;;;;;;;;;;;;54098;1251;1057667;-80
2024/01/24 14:48:51;;;;;;;;;;;;;;;;;;54128;1251;1003298;-80
2024/01/24 14:51:17;;;;;;;;;;;;;;;;;;54106;1251;1037663;-80
2024/01/24 14:53:44;;;;;;;;;;;;;;;;;;54146;1251;1003241;-80
2024/01/24 14:56:10;;;;;;;;;;;;;;;;;;54149;1251;1045562;-80
2024/01/24 14:58:37;;;;;;;;;;;;;;;;;;53642;1251;1004035;-80
2024/01/24 15:01:03;;;;;;;;;;;;;;;;;;53099;1254;1061948;-80
2024/01/24 15:03:30;;;;;;;;;;;;;;;;;;53039;1251;1005141;-80
2024/01/24 15:05:56;;;;;;;;;;;;;;;;;;53058;1251;1057774;-80
2024/01/24 15:08:23;;;;;;;;;;;;;;;;;;53191;1251;1003891;-80
2024/01/24 15:10:49;;;;;;;;;;;;;;;;;;53115;1251;1058766;-80
2024/01/24 15:13:17;;;;;;;;;;;;;;;;;;53122;1250;1005069;-80
2024/01/24 15:15:43;;;;;;;;;;;;;;;;;;53113;1254;1038478;-80
2024/01/24 15:18:10;;;;;;;;;;;;;;;;;;53257;1251;1005157;-80
2024/01/24 15:20:36;;;;;;;;;;;;;;;;;;53114;1251;1045405;-79
2024/01/24 15:23:03;;;;;;;;;;;;;;;;;;53117;1251;1005356;-80
2024/01/24 15:25:29;;;;;;;;;;;;;;;;;;54014;1251;1062155;-80
2024/01/24 15:27:56;;;;;;;;;;;;;;;;;;54198;1250;1003462;-79
2024/01/24 15:30:22;;;;;;;;;;;;;;;;;;54283;1250;1056417;-80
2024/01/24 15:32:49;;;;;;;;;;;;;;;;;;54196;1250;1003164;-79
2024/01/24 15:35:15;;;;;;;;;;;;;;;;;;54163;1250;1058118;-80
2024/01/24 15:37:42;;;;;;;;;;;;;;;;;;54137;1251;1003285;-80
2024/01/24 15:40:09;;;;;;;;;;;;;;;;;;54189;1250;1038759;-80
2024/01/24 15:42:40;;;;;;;;;;;;;;;;;;54169;1251;1003381;-80
2024/01/24 15:45:07;;;;;;;;;;;;;;;;;;52962;1251;1045693;-79
2024/01/24 15:47:33;;;;;;;;;;;;;;;;;;52942;1251;1003863;-80
2024/01/24 15:50:00;;;;;;;;;;;;;;;;;;52939;1250;1061817;-80
2024/01/24 15:52:26;;;;;;;;;;;;;;;;;;52958;1251;1005481;-80
2024/01/24 15:54:53;;;;;;;;;;;;;;;;;;52881;1251;1057882;-79
2024/01/24 15:57:19;;;;;;;;;;;;;;;;;;52914;1251;1005238;-79
2024/01/24 15:59:46;;;;;;;;;;;;;;;;;;52834;1251;1058314;-80
2024/01/24 16:02:13;;;;;;;;;;;;;;;;;;52844;1252;1005193;-80
2024/01/24 16:04:40;;;;;;;;;;;;;;;;;;52890;1251;1038882;-79
2024/01/24 16:07:06;;;;;;;;;;;;;;;;;;52933;1251;1005318;-80